Time;durP1;ratioP1;P1;durP2;ratioP2;P2;SDS_P1;SDS_P2;PMS_P1;PMS_P2;Temp;Humidity;BMP_temperature;BMP_pressure;BME280_temperature;BME280_humidity;BME280_pressure;Samples;Min_cycle;Max_cycle;Signal;HPM_P1;HPM_P2
2020/12/20 00:04:56;;;;;;;38.78;14.38;;;;;;;1.12;68.19;100136.81;10498419;28;20102;-55
2020/12/20 00:09:58;;;;;;;35.67;14.63;;;;;;;1.12;68.67;100137.66;10502783;28;20054;-53
2020/12/20 00:15:00;;;;;;;44.58;16.35;;;;;;;1.14;68.10;100138.44;10498431;28;20485;-55
2020/12/20 00:20:05;;;;;;;44.00;14.55;;;;;;;1.20;68.34;100144.28;10497904;28;20118;-53
2020/12/20 00:25:06;;;;;;;43.28;15.60;;;;;;;1.18;68.25;100146.94;10497325;28;20393;-53
2020/12/20 00:30:09;;;;;;;44.00;15.13;;;;;;;1.20;68.16;100150.31;10496950;28;20465;-53
2020/12/20 00:35:12;;;;;;;42.47;16.48;;;;;;;1.15;68.31;100144.47;10498166;28;20165;-55
2020/12/20 00:40:13;;;;;;;45.08;17.75;;;;;;;1.10;68.33;100144.63;10497682;28;20462;-55
2020/12/20 00:45:15;;;;;;;41.92;14.20;;;;;;;1.06;68.29;100143.06;10495084;28;20053;-54
2020/12/20 00:50:17;;;;;;;51.95;16.00;;;;;;;1.02;68.13;100140.69;10456605;28;20056;-53
2020/12/20 00:55:19;;;;;;;44.95;15.38;;;;;;;1.08;68.42;100145.63;10458024;28;20523;-53
2020/12/20 01:00:21;;;;;;;48.03;17.10;;;;;;;1.10;68.62;100147.22;10474695;28;20056;-53
2020/12/20 01:05:24;;;;;;;42.50;15.40;;;;;;;1.09;68.54;100139.53;10496121;28;20066;-53
2020/12/20 01:10:26;;;;;;;26.65;10.68;;;;;;;1.05;68.42;100141.41;10496935;28;20045;-55
2020/12/20 01:15:29;;;;;;;44.03;15.48;;;;;;;1.10;68.53;100144.63;10498639;28;20442;-55
2020/12/20 01:20:33;;;;;;;42.15;16.58;;;;;;;1.09;67.99;100134.34;10496700;28;20068;-53
2020/12/20 01:25:35;;;;;;;43.35;16.35;;;;;;;1.03;68.20;100139.78;10495505;28;20086;-55
2020/12/20 01:30:48;;;;;;;41.87;16.20;;;;;;;1.06;68.63;100135.31;10497023;28;20143;-54
2020/12/20 01:36:04;;;;;;;38.78;14.75;;;;;;;1.15;67.86;100144.47;10496745;28;20048;-54
2020/12/20 01:41:08;;;;;;;44.00;18.95;;;;;;;1.06;68.15;100147.41;10498366;28;20056;-54
2020/12/20 01:46:13;;;;;;;48.22;16.13;;;;;;;1.10;68.35;100148.97;10501321;28;20481;-54
2020/12/20 01:51:16;;;;;;;36.95;12.18;;;;;;;0.95;68.21;100145.22;10476072;28;20049;-54
2020/12/20 01:56:25;;;;;;;46.75;14.98;;;;;;;0.81;67.87;100143.19;10460081;28;20071;-56
2020/12/20 02:01:27;;;;;;;41.53;14.02;;;;;;;0.85;68.33;100138.72;10463303;28;20044;-62
2020/12/20 02:06:45;;;;;;;45.28;17.17;;;;;;;0.82;68.37;100131.91;10485981;28;20052;-54
2020/12/20 02:11:47;;;;;;;38.28;14.27;;;;;;;0.88;68.27;100138.63;10460750;28;20041;-53
2020/12/20 02:16:53;;;;;;;48.75;17.33;;;;;;;0.89;68.02;100141.16;10459948;28;20049;-54
2020/12/20 02:21:56;;;;;;;44.92;14.70;;;;;;;0.95;67.61;100142.66;10459082;28;20051;-53
2020/12/20 02:27:00;;;;;;;45.17;13.75;;;;;;;0.92;67.93;100140.16;10495500;28;20075;-53
2020/12/20 02:32:03;;;;;;;40.70;13.55;;;;;;;0.89;68.06;100137.69;10498254;28;20041;-56
2020/12/20 02:37:06;;;;;;;54.05;16.58;;;;;;;0.82;68.33;100139.69;10464042;28;20049;-53
2020/12/20 02:42:24;;;;;;;39.97;16.98;;;;;;;0.88;68.17;100136.03;10481068;28;20052;-52
2020/12/20 02:47:26;;;;;;;47.53;17.33;;;;;;;0.83;68.20;100128.44;10499323;28;20055;-53
2020/12/20 02:52:28;;;;;;;42.75;14.00;;;;;;;0.81;68.70;100139.75;10499654;28;20047;-55
2020/12/20 02:57:30;;;;;;;45.05;16.77;;;;;;;0.77;68.48;100115.75;10501404;28;20067;-52
2020/12/20 03:02:48;;;;;;;49.15;17.33;;;;;;;0.71;68.35;100115.13;10502340;28;20040;-54
2020/12/20 03:07:50;;;;;;;43.72;15.15;;;;;;;0.67;68.55;100104.03;10499566;28;20044;-52
2020/12/20 03:12:53;;;;;;;;;;;;;;;0.54;68.46;100100.25;10497953;28;20044;-52
2020/12/20 03:17:57;;;;;;;35.13;12.00;;;;;;;0.45;68.37;100093.66;10497020;28;19977;-53
2020/12/20 03:23:04;;;;;;;54.38;16.98;;;;;;;0.31;69.15;100096.78;10497354;28;20693;-54
2020/12/20 03:28:30;;;;;;;15.75;7.93;;;;;;;0.26;69.13;100098.66;10474795;28;20481;-55
2020/12/20 03:33:52;;;;;;;46.20;11.80;;;;;;;0.21;69.50;100098.00;10531558;28;20411;-54
2020/12/20 03:39:19;;;;;;;50.05;15.85;;;;;;;0.26;69.43;100103.00;10520707;28;20048;-53
2020/12/20 03:44:21;;;;;;;55.72;17.92;;;;;;;0.26;69.71;100109.00;10496961;28;20044;-54
2020/12/20 03:49:24;;;;;;;61.47;17.80;;;;;;;0.39;69.43;100105.06;10496405;28;20144;-52
2020/12/20 03:54:27;;;;;;;53.40;20.67;;;;;;;0.45;69.49;100115.19;10497657;28;20048;-52
2020/12/20 03:59:29;;;;;;;58.57;20.23;;;;;;;0.56;68.89;100113.97;10498367;28;20048;-54
2020/12/20 04:04:31;;;;;;;60.03;19.35;;;;;;;0.66;69.10;100121.31;10498889;28;20047;-54
2020/12/20 04:09:33;;;;;;;47.05;15.60;;;;;;;0.69;68.64;100126.38;10497437;28;20052;-54
2020/12/20 04:14:47;;;;;;;59.00;18.42;;;;;;;0.74;68.71;100135.69;10498917;28;20139;-52
2020/12/20 04:19:49;;;;;;;69.20;21.13;;;;;;;0.79;68.67;100137.22;10497470;28;20061;-54
2020/12/20 04:25:14;;;;;;;51.28;17.20;;;;;;;0.72;68.48;100146.13;10497163;28;20064;-53
2020/12/20 04:30:36;;;;;;;70.05;20.70;;;;;;;0.87;68.67;100161.06;10499762;28;20114;-54
2020/12/20 04:35:45;;;;;;;57.03;15.68;;;;;;;0.95;68.13;100165.09;10495937;28;20048;-54
2020/12/20 04:40:50;;;;;;;;;;;;;;;0.89;68.55;100169.63;10496618;28;20373;-53
2020/12/20 04:45:54;;;;;;;43.80;14.70;;;;;;;0.89;68.68;100173.94;10494782;28;19971;-55
2020/12/20 04:51:14;;;;;;;59.90;16.88;;;;;;;0.89;68.64;100174.81;10497483;28;20059;-55
2020/12/20 04:56:19;;;;;;;56.70;19.40;;;;;;;0.94;68.34;100184.13;10497837;28;20217;-55
2020/12/20 05:01:27;;;;;;;63.35;21.38;;;;;;;0.97;68.17;100184.03;10495320;28;20519;-56
2020/12/20 05:06:30;;;;;;;58.10;16.38;;;;;;;0.94;68.00;100178.97;10496116;28;20045;-60
2020/12/20 05:11:42;;;;;;;45.08;14.82;;;;;;;0.99;68.17;100187.41;10496583;28;20040;-54
2020/12/20 05:16:47;;;;;;;54.92;17.85;;;;;;;1.00;67.87;100199.44;10498550;28;20049;-55
2020/12/20 05:22:15;;;;;;;43.60;12.10;;;;;;;0.93;68.30;100193.66;10502489;28;20136;-55
2020/12/20 05:27:28;;;;;;;54.20;17.02;;;;;;;0.91;68.39;100187.69;10503582;28;20055;-53
2020/12/20 05:32:31;;;;;;;57.13;19.02;;;;;;;0.94;68.45;100195.31;10528738;28;20040;-53
2020/12/20 05:37:42;;;;;;;58.05;15.88;;;;;;;0.89;68.36;100192.94;10535394;28;20058;-53
2020/12/20 05:43:00;;;;;;;50.83;16.95;;;;;;;0.87;68.48;100205.06;10500312;28;20044;-54
2020/12/20 05:48:13;;;;;;;71.70;21.45;;;;;;;0.91;68.50;100200.63;10501813;28;20877;-53
2020/12/20 05:53:15;;;;;;;60.15;17.85;;;;;;;0.95;68.42;100203.94;10500974;28;20041;-54
2020/12/20 05:58:18;;;;;;;53.92;17.23;;;;;;;0.98;68.50;100216.75;10485167;28;20090;-54
2020/12/20 06:03:19;;;;;;;58.92;17.95;;;;;;;1.07;68.50;100230.19;10462183;28;20107;-55
2020/12/20 06:08:22;;;;;;;61.97;20.02;;;;;;;1.19;68.16;100226.31;10460596;28;20048;-55
2020/12/20 06:13:25;;;;;;;83.38;25.23;;;;;;;1.21;67.78;100234.03;10461061;28;20049;-53
2020/12/20 06:18:29;;;;;;;63.35;18.83;;;;;;;1.28;67.38;100236.31;10459946;28;20145;-52
2020/12/20 06:23:33;;;;;;;74.28;22.38;;;;;;;1.24;68.02;100237.34;10465995;28;20140;-58
2020/12/20 06:28:35;;;;;;;;;;;;;;;1.26;67.65;100237.28;10501359;28;20053;-54
2020/12/20 06:33:45;;;;;;;85.90;21.45;;;;;;;1.26;67.88;100243.31;10501694;28;20435;-54
2020/12/20 06:38:53;;;;;;;63.33;22.13;;;;;;;1.33;67.71;100255.13;10501851;28;20078;-53
2020/12/20 06:43:55;;;;;;;72.30;24.23;;;;;;;1.44;68.15;100259.03;10488215;28;20396;-54
2020/12/20 06:48:57;;;;;;;64.03;21.58;;;;;;;1.52;67.63;100262.19;10497294;28;20370;-53
2020/12/20 06:53:58;;;;;;;84.82;23.60;;;;;;;1.49;67.90;100267.50;10459989;28;20087;-54
2020/12/20 06:59:01;;;;;;;80.15;22.98;;;;;;;1.44;67.87;100267.66;10470484;28;20590;-57
2020/12/20 07:04:04;;;;;;;48.50;17.47;;;;;;;1.40;67.62;100265.25;10501734;28;20431;-55
2020/12/20 07:09:07;;;;;;;71.38;22.42;;;;;;;1.34;68.00;100266.31;10501995;28;20475;-54
2020/12/20 07:14:21;;;;;;;61.83;20.53;;;;;;;1.34;68.56;100267.16;10501841;28;20502;-54
2020/12/20 07:19:24;;;;;;;63.00;20.00;;;;;;;1.40;68.89;100271.28;10500250;28;20063;-54
2020/12/20 07:24:28;;;;;;;63.40;23.87;;;;;;;1.46;68.52;100271.03;10503993;28;20409;-54
2020/12/20 07:29:32;;;;;;;57.35;18.15;;;;;;;1.57;68.45;100280.97;10498839;28;20057;-53
2020/12/20 07:34:34;;;;;;;62.78;23.17;;;;;;;1.60;68.50;100283.44;10541570;28;20044;-55
2020/12/20 07:39:36;;;;;;;59.63;20.73;;;;;;;1.75;69.24;100275.06;10512518;28;20054;-53
2020/12/20 07:44:38;;;;;;;71.07;21.13;;;;;;;1.82;69.02;100288.66;10497176;28;20044;-53
2020/12/20 07:49:40;;;;;;;64.00;21.13;;;;;;;1.97;68.56;100290.63;10497637;28;20059;-55
2020/12/20 07:54:41;;;;;;;59.42;21.85;;;;;;;2.04;68.23;100286.03;10496945;28;20053;-53
2020/12/20 07:59:47;;;;;;;60.38;23.13;;;;;;;2.16;68.51;100284.69;10495790;28;20067;-54
2020/12/20 08:04:49;;;;;;;71.47;23.17;;;;;;;2.26;68.82;100280.81;10498184;28;20045;-58
2020/12/20 08:09:54;;;;;;;67.82;23.13;;;;;;;2.42;68.63;100278.41;10496012;28;20110;-53
2020/12/20 08:15:08;;;;;;;63.17;24.48;;;;;;;2.50;67.95;100279.78;10495267;28;20366;-54
2020/12/20 08:20:10;;;;;;;43.00;14.82;;;;;;;2.71;68.69;100275.41;10498716;28;20436;-54
2020/12/20 08:25:12;;;;;;;60.60;20.13;;;;;;;2.73;68.71;100270.97;10498035;28;20044;-55
2020/12/20 08:30:15;;;;;;;53.35;19.95;;;;;;;2.61;68.66;100268.91;10497230;28;20064;-55
2020/12/20 08:35:19;;;;;;;63.03;22.98;;;;;;;2.59;68.62;100260.38;10498528;28;20040;-53
2020/12/20 08:40:21;;;;;;;50.35;20.17;;;;;;;2.67;69.04;100258.25;10494286;28;20048;-53
2020/12/20 08:45:24;;;;;;;47.35;17.92;;;;;;;2.75;68.56;100253.59;10494846;28;20045;-55
2020/12/20 08:50:28;;;;;;;48.42;17.80;;;;;;;2.91;68.86;100260.69;10498865;28;20048;-53
2020/12/20 08:55:30;;;;;;;51.10;20.13;;;;;;;3.03;68.97;100257.56;10505482;28;20091;-55
2020/12/20 09:00:34;;;;;;;55.88;20.92;;;;;;;3.15;68.59;100254.41;10504159;28;20546;-54
2020/12/20 09:05:36;;;;;;;44.35;17.17;;;;;;;3.26;68.60;100255.66;10504921;28;20049;-56
2020/12/20 09:10:38;;;;;;;43.65;17.70;;;;;;;3.27;68.31;100246.97;10505809;28;20080;-57
2020/12/20 09:15:41;;;;;;;44.80;15.40;;;;;;;3.28;68.35;100252.06;10505500;28;20554;-54
2020/12/20 09:20:43;;;;;;;;;;;;;;;3.35;68.65;100255.22;10506110;28;20067;-54
2020/12/20 09:25:46;;;;;;;56.20;20.15;;;;;;;3.37;68.08;100249.03;10504592;28;19947;-54
2020/12/20 09:30:50;;;;;;;49.75;19.10;;;;;;;3.44;68.53;100250.44;10503296;28;20678;-55
2020/12/20 09:36:02;;;;;;;51.38;18.10;;;;;;;3.49;68.19;100237.22;10502250;28;20048;-55
2020/12/20 09:41:06;;;;;;;52.10;18.65;;;;;;;3.63;68.21;100242.63;10502887;28;20102;-55
2020/12/20 09:46:09;;;;;;;46.47;18.70;;;;;;;3.72;68.37;100243.94;10503642;28;20048;-54
2020/12/20 09:51:11;;;;;;;39.90;15.23;;;;;;;3.83;67.59;100243.41;10503761;28;20397;-55
2020/12/20 09:56:13;;;;;;;46.65;16.30;;;;;;;3.79;67.84;100245.34;10503410;28;20114;-55
2020/12/20 10:01:19;;;;;;;32.95;14.27;;;;;;;3.82;68.25;100249.53;10501736;28;20489;-55
2020/12/20 10:06:21;;;;;;;31.38;14.48;;;;;;;3.93;67.85;100242.03;10501564;28;20119;-54
2020/12/20 10:11:23;;;;;;;38.00;14.02;;;;;;;4.03;68.29;100245.88;10502221;28;20169;-56
2020/12/20 10:16:25;;;;;;;33.70;15.10;;;;;;;4.18;67.74;100251.22;10503673;28;20405;-54
2020/12/20 10:21:27;;;;;;;34.08;13.95;;;;;;;4.43;67.06;100233.44;10502339;28;20424;-54
2020/12/20 10:26:28;;;;;;;42.20;15.38;;;;;;;4.50;66.45;100231.41;10474669;28;20509;-54
2020/12/20 10:31:31;;;;;;;38.80;16.05;;;;;;;4.58;66.64;100263.91;10490734;28;20052;-55
2020/12/20 10:36:33;;;;;;;34.95;14.68;;;;;;;4.86;66.00;100265.06;10541521;28;20490;-54
2020/12/20 10:41:36;;;;;;;33.00;15.10;;;;;;;4.81;66.07;100262.72;10494873;28;20059;-53
2020/12/20 10:46:39;;;;;;;35.90;14.77;;;;;;;4.73;66.05;100258.84;10501680;28;20055;-54
2020/12/20 10:51:40;;;;;;;34.20;15.82;;;;;;;4.76;66.36;100258.69;10501694;28;20045;-54
2020/12/20 10:56:42;;;;;;;32.95;14.07;;;;;;;4.71;66.44;100256.31;10499923;28;20056;-56
2020/12/20 11:01:45;;;;;;;33.25;13.82;;;;;;;4.64;66.46;100259.31;10501141;28;20060;-56
2020/12/20 11:06:46;;;;;;;35.03;15.13;;;;;;;4.74;66.64;100261.38;10501508;28;20048;-54
2020/12/20 11:11:48;;;;;;;31.65;12.50;;;;;;;4.78;66.85;100251.63;10501154;28;20049;-56
2020/12/20 11:16:51;;;;;;;32.70;12.77;;;;;;;4.46;66.32;100242.88;10506835;28;20139;-56
2020/12/20 11:21:54;;;;;;;33.92;13.88;;;;;;;4.43;67.30;100261.25;10501608;28;20465;-53
2020/12/20 11:26:56;;;;;;;32.03;15.40;;;;;;;4.34;68.13;100257.34;10500013;28;20420;-55
2020/12/20 11:31:58;;;;;;;31.70;12.45;;;;;;;4.45;68.60;100255.03;10500201;28;20393;-55
2020/12/20 11:37:00;;;;;;;31.48;12.70;;;;;;;4.35;68.40;100270.28;10497972;28;20141;-54
2020/12/20 11:42:02;;;;;;;23.52;11.77;;;;;;;4.34;69.01;100279.03;10497108;28;20059;-54
2020/12/20 11:47:04;;;;;;;29.83;12.70;;;;;;;4.40;68.57;100275.25;10499570;28;20052;-56
2020/12/20 11:52:06;;;;;;;33.80;12.70;;;;;;;4.25;68.61;100278.63;10498864;28;20098;-56
2020/12/20 11:57:07;;;;;;;34.25;13.73;;;;;;;4.21;69.33;100283.16;10498613;28;20060;-53
2020/12/20 12:02:10;;;;;;;34.35;12.05;;;;;;;4.20;68.97;100288.44;10503044;28;20040;-56
2020/12/20 12:07:11;;;;;;;26.60;10.60;;;;;;;4.29;68.88;100291.44;10499575;28;20055;-55
2020/12/20 12:12:14;;;;;;;32.00;12.35;;;;;;;4.32;68.66;100295.66;10495272;28;20044;-54
2020/12/20 12:17:17;;;;;;;36.53;14.95;;;;;;;4.24;68.73;100287.38;10486668;28;20118;-53
2020/12/20 12:22:19;;;;;;;33.63;14.73;;;;;;;4.14;68.68;100294.78;10497681;28;20106;-53
2020/12/20 12:27:20;;;;;;;34.92;14.73;;;;;;;4.12;68.87;100292.25;10497614;28;20049;-53
2020/12/20 12:32:23;;;;;;;39.70;15.32;;;;;;;4.04;69.32;100301.38;10523691;28;20112;-56
2020/12/20 12:37:25;;;;;;;35.10;14.32;;;;;;;3.97;68.99;100299.97;10537610;28;20063;-54
2020/12/20 12:42:27;;;;;;;42.97;15.15;;;;;;;3.96;69.36;100304.31;10498128;28;20051;-56
2020/12/20 12:47:29;;;;;;;37.80;14.35;;;;;;;3.93;69.45;100310.50;10494882;28;20045;-55
2020/12/20 12:52:31;;;;;;;37.35;13.38;;;;;;;3.96;69.86;100317.34;10496477;28;20041;-53
2020/12/20 12:57:33;;;;;;;41.08;13.48;;;;;;;3.91;69.41;100314.97;10497036;28;20056;-55
2020/12/20 13:02:35;;;;;;;42.15;15.98;;;;;;;3.87;69.53;100325.56;10497477;28;20044;-53
2020/12/20 13:07:37;;;;;;;41.95;14.50;;;;;;;3.92;68.99;100327.03;10497708;28;20117;-56
2020/12/20 13:12:39;;;;;;;46.60;16.38;;;;;;;4.02;69.36;100335.25;10493227;28;20106;-56
2020/12/20 13:17:41;;;;;;;45.97;17.88;;;;;;;3.99;69.08;100332.78;10495094;28;20059;-54
2020/12/20 13:22:43;;;;;;;50.85;16.50;;;;;;;3.87;69.16;100336.81;10496680;28;20183;-53
2020/12/20 13:27:45;;;;;;;44.80;17.05;;;;;;;3.82;69.07;100332.78;10484409;28;20489;-53
2020/12/20 13:32:47;;;;;;;61.80;21.10;;;;;;;3.69;69.36;100335.06;10523203;28;20481;-55
2020/12/20 13:37:49;;;;;;;60.97;20.17;;;;;;;3.71;69.15;100335.03;10527101;28;20381;-56
2020/12/20 13:42:50;;;;;;;60.80;20.40;;;;;;;3.72;69.20;100342.72;10503118;28;20056;-57
2020/12/20 13:47:53;;;;;;;57.30;19.52;;;;;;;3.82;69.91;100344.00;10504544;28;20139;-54
2020/12/20 13:52:55;;;;;;;57.20;19.35;;;;;;;3.85;69.49;100343.03;10502553;28;20172;-56
2020/12/20 13:57:56;;;;;;;57.08;17.33;;;;;;;3.95;69.76;100354.69;10502900;28;20501;-54
2020/12/20 14:02:59;;;;;;;64.38;19.83;;;;;;;3.91;69.84;100358.34;10503468;28;20538;-59
2020/12/20 14:08:00;;;;;;;62.55;18.23;;;;;;;3.94;69.53;100363.38;10502347;28;20049;-54
2020/12/20 14:13:02;;;;;;;80.32;22.15;;;;;;;3.85;69.46;100364.66;10502761;28;20056;-55
2020/12/20 14:18:05;;;;;;;67.30;19.55;;;;;;;3.86;69.44;100365.50;10502443;28;20063;-54
2020/12/20 14:23:07;;;;;;;79.80;22.42;;;;;;;3.83;69.68;100355.25;10502547;28;20481;-54
2020/12/20 14:28:08;;;;;;;70.70;20.45;;;;;;;3.80;69.70;100358.00;10501956;28;20425;-53
2020/12/20 14:33:12;;;;;;;120.97;22.17;;;;;;;3.87;69.56;100364.59;10502660;28;20045;-53
2020/12/20 14:38:13;;;;;;;83.13;22.55;;;;;;;3.97;69.93;100371.03;10505445;28;20060;-54
2020/12/20 14:43:15;;;;;;;86.80;22.35;;;;;;;3.93;69.46;100369.50;10500698;28;20041;-53
2020/12/20 14:48:17;;;;;;;131.88;23.88;;;;;;;3.89;69.81;100367.97;10500565;28;20056;-56
2020/12/20 14:53:19;;;;;;;99.30;23.65;;;;;;;3.83;70.02;100369.09;10500964;28;20055;-53
2020/12/20 14:58:21;;;;;;;173.63;29.90;;;;;;;3.79;70.05;100374.53;10500887;28;20481;-54
2020/12/20 15:03:23;;;;;;;115.25;22.02;;;;;;;3.79;70.33;100375.38;10501353;28;20439;-56
2020/12/20 15:08:25;;;;;;;132.05;28.05;;;;;;;3.80;70.49;100381.41;10500786;28;20132;-53
2020/12/20 15:13:26;;;;;;;111.15;23.58;;;;;;;3.87;69.73;100385.41;10499738;28;20476;-59
2020/12/20 15:18:29;;;;;;;143.73;26.98;;;;;;;3.78;70.05;100385.81;10499057;28;20052;-55
2020/12/20 15:23:31;;;;;;;101.25;26.50;;;;;;;3.81;70.08;100385.69;10498267;28;20050;-54
2020/12/20 15:28:33;;;;;;;90.47;23.20;;;;;;;3.88;70.06;100381.91;10499161;28;20054;-53
2020/12/20 15:33:36;;;;;;;91.32;22.48;;;;;;;3.92;70.56;100371.25;10534972;28;20472;-53
2020/12/20 15:38:38;;;;;;;94.40;22.63;;;;;;;3.95;69.84;100374.66;10527933;28;20420;-54
2020/12/20 15:43:40;;;;;;;190.75;35.15;;;;;;;3.97;70.40;100376.22;10483542;28;20115;-56
2020/12/20 15:48:44;;;;;;;96.15;19.38;;;;;;;4.05;70.53;100379.31;10498144;28;20370;-56
2020/12/20 15:53:46;;;;;;;172.90;30.80;;;;;;;4.04;69.90;100380.25;10498703;28;20071;-53
2020/12/20 15:58:47;;;;;;;136.98;25.38;;;;;;;3.96;70.09;100377.16;10496806;28;20049;-56
2020/12/20 16:03:50;;;;;;;216.48;37.25;;;;;;;3.90;70.22;100382.66;10486098;28;20040;-56
2020/12/20 16:08:52;;;;;;;143.15;25.90;;;;;;;3.93;70.38;100380.75;10496070;28;20108;-53
2020/12/20 16:13:53;;;;;;;174.65;28.27;;;;;;;3.97;70.34;100378.84;10467496;28;20044;-56
2020/12/20 16:18:56;;;;;;;181.23;33.38;;;;;;;3.94;70.47;100381.59;10465116;28;20060;-55
2020/12/20 16:23:58;;;;;;;108.60;21.85;;;;;;;3.99;70.22;100387.41;10465347;28;20044;-55
2020/12/20 16:28:59;;;;;;;147.23;28.67;;;;;;;3.98;70.03;100382.31;10498155;28;20123;-55
2020/12/20 16:34:02;;;;;;;214.68;32.03;;;;;;;3.93;69.66;100372.94;10534245;28;20362;-54
2020/12/20 16:39:06;;;;;;;89.78;23.88;;;;;;;3.93;70.17;100374.69;10525742;28;20056;-54
2020/12/20 16:44:07;;;;;;;;;;;;;;;4.04;70.09;100385.47;10497677;28;20550;-56
2020/12/20 16:49:10;;;;;;;152.63;26.00;;;;;;;4.02;69.96;100382.06;10497252;28;19935;-56
2020/12/20 16:54:13;;;;;;;82.38;22.45;;;;;;;3.99;70.09;100391.78;10497666;28;20113;-57
2020/12/20 16:59:15;;;;;;;70.78;19.30;;;;;;;3.99;70.32;100379.63;10495738;28;20068;-56
2020/12/20 17:04:18;;;;;;;103.60;20.05;;;;;;;3.95;69.89;100374.66;10497082;28;20469;-53
2020/12/20 17:09:20;;;;;;;69.00;19.38;;;;;;;3.97;69.93;100389.25;10496806;28;20060;-53
2020/12/20 17:14:22;;;;;;;101.78;22.30;;;;;;;3.95;69.69;100391.09;10501471;28;20068;-54
2020/12/20 17:19:25;;;;;;;88.07;19.83;;;;;;;3.92;69.33;100380.84;10505127;28;20125;-53
2020/12/20 17:24:27;;;;;;;151.80;25.23;;;;;;;3.85;70.01;100382.03;10503120;28;20048;-55
2020/12/20 17:29:29;;;;;;;113.55;23.95;;;;;;;3.85;70.38;100384.66;10504294;28;20493;-53
2020/12/20 17:34:32;;;;;;;145.75;24.63;;;;;;;3.88;70.22;100369.72;10501438;28;20059;-54
2020/12/20 17:39:33;;;;;;;107.30;22.83;;;;;;;3.79;70.59;100369.31;10494286;28;20146;-56
2020/12/20 17:44:35;;;;;;;97.05;21.30;;;;;;;3.73;70.26;100386.03;10504277;28;20063;-56
2020/12/20 17:49:38;;;;;;;102.80;18.40;;;;;;;3.71;70.35;100390.47;10503354;28;20049;-53
2020/12/20 17:54:39;;;;;;;69.80;19.13;;;;;;;3.69;70.41;100392.28;10502625;28;20538;-54
2020/12/20 17:59:41;;;;;;;89.75;20.50;;;;;;;3.71;70.71;100394.81;10504139;28;20120;-53
2020/12/20 18:04:44;;;;;;;80.95;18.73;;;;;;;3.80;70.97;100402.22;10503290;28;20055;-53
2020/12/20 18:09:45;;;;;;;90.03;20.80;;;;;;;3.84;70.62;100404.59;10502381;28;20052;-54
2020/12/20 18:14:47;;;;;;;58.33;16.38;;;;;;;3.89;70.43;100409.59;10502866;28;20376;-54
2020/12/20 18:19:50;;;;;;;66.95;17.25;;;;;;;3.96;70.38;100407.53;10502190;28;20389;-55
2020/12/20 18:24:52;;;;;;;56.55;17.33;;;;;;;4.05;70.88;100407.94;10501628;28;20044;-56
2020/12/20 18:29:54;;;;;;;53.38;16.95;;;;;;;4.03;70.19;100404.56;10500180;28;20412;-54
2020/12/20 18:34:56;;;;;;;60.78;16.52;;;;;;;3.95;70.25;100395.47;10501342;28;20059;-55
2020/12/20 18:39:58;;;;;;;51.85;16.85;;;;;;;4.06;70.09;100404.41;10498699;28;20055;-54
2020/12/20 18:45:00;;;;;;;48.13;17.08;;;;;;;4.16;69.88;100404.84;10499443;28;20044;-55
2020/12/20 18:50:02;;;;;;;46.13;14.75;;;;;;;4.07;69.87;100408.72;10498520;28;20397;-54
2020/12/20 18:55:04;;;;;;;45.53;15.05;;;;;;;4.05;70.17;100402.75;10499520;28;20404;-56
2020/12/20 19:00:06;;;;;;;48.53;15.27;;;;;;;4.06;70.71;100408.78;10498336;28;20067;-54
2020/12/20 19:05:09;;;;;;;43.65;14.95;;;;;;;4.21;69.80;100413.25;10497347;28;20049;-54
2020/12/20 19:10:10;;;;;;;42.38;15.85;;;;;;;4.19;70.20;100399.50;10498325;28;20040;-56
2020/12/20 19:15:12;;;;;;;50.35;14.90;;;;;;;4.07;69.66;100389.69;10498971;28;20040;-56
2020/12/20 19:20:15;;;;;;;39.28;12.63;;;;;;;4.02;70.23;100376.03;10497351;28;20052;-53
2020/12/20 19:25:16;;;;;;;46.90;16.48;;;;;;;3.98;69.90;100367.53;10496992;28;20044;-54
2020/12/20 19:30:18;;;;;;;36.03;12.88;;;;;;;3.98;69.97;100367.53;10503915;28;20396;-54
2020/12/20 19:35:21;;;;;;;41.25;13.18;;;;;;;3.98;70.03;100358.91;10539317;28;20068;-54
2020/12/20 19:40:23;;;;;;;39.58;14.00;;;;;;;4.00;70.39;100370.88;10503410;28;20055;-55
2020/12/20 19:45:24;;;;;;;38.80;14.00;;;;;;;3.96;70.42;100364.16;10497385;28;20048;-55
2020/12/20 19:50:27;;;;;;;37.38;12.50;;;;;;;3.93;70.48;100372.94;10497238;28;20056;-55
2020/12/20 19:55:29;;;;;;;44.95;12.50;;;;;;;4.02;70.53;100382.06;10495558;28;20052;-54
2020/12/20 20:00:30;;;;;;;48.50;16.10;;;;;;;4.13;69.96;100394.59;10496891;28;20071;-57
2020/12/20 20:05:33;;;;;;;54.83;19.88;;;;;;;4.21;70.28;100397.66;10496576;28;20087;-54
2020/12/20 20:10:35;;;;;;;49.90;18.13;;;;;;;4.23;69.66;100400.19;10495418;28;20419;-57
2020/12/20 20:15:36;;;;;;;49.05;17.88;;;;;;;4.25;70.10;100398.34;10454925;28;20056;-56
2020/12/20 20:20:39;;;;;;;37.95;14.27;;;;;;;4.23;70.17;100387.19;10453432;28;20052;-56
2020/12/20 20:25:40;;;;;;;35.80;13.18;;;;;;;4.20;70.15;100382.13;10476623;28;20041;-56
2020/12/20 20:30:42;;;;;;;43.63;16.00;;;;;;;4.18;70.15;100382.19;10505372;28;20056;-55
2020/12/20 20:35:45;;;;;;;42.40;16.20;;;;;;;4.18;70.45;100384.78;10537782;28;20560;-53
2020/12/20 20:40:46;;;;;;;42.20;15.30;;;;;;;4.20;69.73;100392.53;10505546;28;20067;-59
2020/12/20 20:45:48;;;;;;;47.40;15.57;;;;;;;4.21;70.00;100394.22;10495828;28;20055;-53
2020/12/20 20:50:50;;;;;;;43.78;15.25;;;;;;;4.21;70.30;100391.59;10503396;28;20060;-55
2020/12/20 20:55:52;;;;;;;32.40;12.05;;;;;;;4.28;69.96;100393.88;10461806;28;20037;-54
2020/12/20 21:00:54;;;;;;;32.15;11.25;;;;;;;4.31;70.22;100403.25;10462275;28;20045;-56
2020/12/20 21:05:56;;;;;;;28.75;9.30;;;;;;;4.38;69.52;100404.66;10461284;28;20041;-54
2020/12/20 21:10:58;;;;;;;32.22;10.98;;;;;;;4.38;69.61;100408.09;10468541;28;20048;-55
2020/12/20 21:16:00;;;;;;;30.20;11.27;;;;;;;4.46;69.80;100396.47;10500907;28;20097;-63
2020/12/20 21:21:03;;;;;;;36.40;12.45;;;;;;;4.45;69.55;100400.84;10503067;28;20052;-56
2020/12/20 21:26:05;;;;;;;27.25;11.82;;;;;;;4.44;69.78;100401.75;10500854;28;20052;-54
2020/12/20 21:31:07;;;;;;;31.83;10.85;;;;;;;4.39;69.46;100411.53;10496898;28;20143;-56
2020/12/20 21:36:11;;;;;;;36.63;11.75;;;;;;;4.44;70.06;100406.13;10497339;28;20366;-54
2020/12/20 21:41:14;;;;;;;33.25;11.55;;;;;;;4.36;69.30;100401.28;10502776;28;20071;-58
2020/12/20 21:46:16;;;;;;;30.50;9.77;;;;;;;4.33;69.91;100394.47;10502101;28;20396;-53
2020/12/20 21:51:22;;;;;;;32.33;12.43;;;;;;;4.28;69.52;100395.59;10503336;28;20860;-55
2020/12/20 21:56:24;;;;;;;35.17;13.60;;;;;;;4.27;70.27;100402.56;10502410;28;20059;-54
2020/12/20 22:01:25;;;;;;;32.63;11.73;;;;;;;4.26;69.71;100395.69;10502194;28;20078;-54
2020/12/20 22:06:28;;;;;;;31.60;11.88;;;;;;;4.31;70.16;100387.63;10501586;28;20389;-56
2020/12/20 22:11:29;;;;;;;30.27;10.30;;;;;;;4.39;69.93;100386.34;10502128;28;20464;-55
2020/12/20 22:16:32;;;;;;;28.13;11.63;;;;;;;4.48;70.01;100403.28;10502791;28;20051;-55
2020/12/20 22:21:38;;;;;;;33.07;11.40;;;;;;;4.52;69.32;100406.59;10501390;28;20062;-56
2020/12/20 22:26:42;;;;;;;28.67;11.30;;;;;;;4.54;69.12;100416.00;10501392;28;20048;-56
2020/12/20 22:31:47;;;;;;;26.10;8.52;;;;;;;4.53;69.02;100411.72;10502411;28;20208;-53
2020/12/20 22:36:49;;;;;;;33.28;12.00;;;;;;;4.57;69.63;100410.66;10501246;28;20598;-58
2020/12/20 22:41:51;;;;;;;28.15;10.77;;;;;;;4.68;68.98;100422.28;10501862;28;20067;-55
2020/12/20 22:46:53;;;;;;;29.83;11.40;;;;;;;4.69;69.23;100432.66;10500870;28;20496;-55
2020/12/20 22:51:55;;;;;;;30.38;10.98;;;;;;;4.67;69.15;100431.88;10466625;28;20084;-53
2020/12/20 22:57:00;;;;;;;24.67;11.38;;;;;;;4.70;69.46;100430.88;10459709;28;20493;-55
2020/12/20 23:02:02;;;;;;;32.47;9.52;;;;;;;4.65;69.25;100427.66;10459457;28;20152;-55